• Join FlightAware (Why Join?)
  • Login
  • US Flag 
02:01PM EDT


 

Airport Tracker/Info


-or-


 

Live Flight TrackerFlight Track Log ✈ SWA2852 ✈ 17-Apr-2013 ✈ KBNA - KMCI

Flight Track Log - Related Links

Times and Time Zones

All times are in EDT time to prevent confusion due to time zone crossing. See the SWA2852 flight status page for this flight to view local times or setup timezone preferences in your user account.

Time Position Orientation Groundspeed Altitude Reporting Facility
EDT Latitude Longitude Course Direction KTS MPH feet Rate Location/Type
07:34AM 36.1000 -86.6833 238° Southwest 159 183 1,600  Level Nashville TRACON
07:34AM 36.0833 -86.7167 238° Southwest 155 178 2,900 2,280 Climbing Nashville TRACON
07:35AM 36.1000 -86.7833 287° West 239 275 5,100 2,940 Climbing Nashville TRACON
07:37AM 36.1508 -86.9331 293° West 285 328 11,200 3,420 Climbing Memphis Center
07:38AM 36.1978 -87.0494 297° West 317 365 14,700 3,540 Climbing Memphis Center
07:39AM 36.2425 -87.1583 297° West 349 402 18,300 3,360 Climbing Memphis Center
07:40AM 36.2786 -87.2778 291° West 361 415 21,500 3,000 Climbing Memphis Center
07:41AM 36.3047 -87.4031 285° West 373 429 24,400 2,820 Climbing Memphis Center
07:42AM 36.3328 -87.5386 284° West 385 443 27,200 2,580 Climbing Memphis Center
07:43AM 36.3589 -87.6744 283° West 400 460 29,600 2,040 Climbing Memphis Center
07:44AM 36.3844 -87.7947 285° West 405 466 31,300 2,100 Climbing Memphis Center
07:45AM 36.4122 -87.9331 284° West 405 466 33,900 2,400 Climbing Memphis Center
07:46AM 36.4375 -88.0639 284° West 410 472 36,100 1,560 Climbing Memphis Center
07:47AM 36.4669 -88.1919 286° West 398 458 37,100 840 Climbing Memphis Center
07:48AM 36.4900 -88.3203 283° West 388 447 37,800 660 Climbing Memphis Center
07:49AM 36.5172 -88.4592 284° West 399 459 38,500 1,020 Climbing Memphis Center
07:50AM 36.5442 -88.5981 284° West 411 473 39,900 720 Climbing Memphis Center
07:51AM 36.5733 -88.7394 284° West 417 480 40,000  Climbing Memphis Center
07:52AM 36.5981 -88.8786 283° West 417 480 40,000  Level Memphis Center
07:53AM 36.6267 -89.0150 285° West 412 474 40,000  Level Memphis Center
07:54AM 36.6553 -89.1672 283° West 412 474 40,000  Level Memphis Center
07:55AM 36.6836 -89.3064 284° West 412 474 40,000  Level Memphis Center
07:56AM 36.7078 -89.4511 282° West 418 481 40,000 -300 Level Memphis Center
07:57AM 36.7317 -89.5933 282° West 418 481 39,500 -780 Descending Memphis Center
07:58AM 36.7531 -89.7303 281° West 418 481 38,500 -780 Descending Memphis Center
07:59AM 36.7789 -89.8594 284° West 406 467 38,000 -300 Descending Memphis Center
08:00AM 36.8022 -89.9917 282° West 394 453 38,000  Level Memphis Center
08:01AM 36.8253 -90.1236 282° West 394 453 38,000  Level Memphis Center
08:02AM 36.8486 -90.2558 282° West 394 453 38,000  Level Memphis Center
08:03AM 36.8736 -90.3933 283° West 394 453 38,000  Level Memphis Center
08:05AM 36.9197 -90.6608 282° West 403 464 38,000  Level Kansas City Center
08:06AM 36.9433 -90.7967 282° West 402 463 38,000  Level Kansas City Center
08:07AM 36.9678 -90.9311 283° West 400 460 38,000  Level Kansas City Center
08:08AM 36.9911 -91.0661 282° West 398 458 38,000  Level Kansas City Center
08:09AM 37.0139 -91.2117 281° West 397 457 38,000  Level Kansas City Center
08:10AM 37.0372 -91.3458 282° West 395 455 38,000  Level Kansas City Center
08:11AM 37.0606 -91.4797 282° West 393 452 38,000  Level Kansas City Center
08:12AM 37.0822 -91.6131 282° West 390 449 38,000  Level Kansas City Center
08:13AM 37.1056 -91.7447 283° West 388 447 38,000  Level Kansas City Center
08:14AM 37.1264 -91.8786 281° West 387 445 38,000  Level Kansas City Center
08:15AM 37.1478 -92.0106 282° West 386 444 38,000  Level Kansas City Center
08:16AM 37.1697 -92.1439 282° West 388 447 38,000  Level Kansas City Center
08:17AM 37.1967 -92.3075 282° West 393 452 38,000  Level Kansas City Center
08:18AM 37.2181 -92.4453 281° West 397 457 38,000  Level Kansas City Center
08:19AM 37.2394 -92.5825 281° West 398 458 38,000  Level Kansas City Center
08:20AM 37.2614 -92.7206 281° West 400 460 38,000  Level Kansas City Center
08:21AM 37.2833 -92.8606 281° West 404 465 38,000  Level Kansas City Center
08:22AM 37.3053 -93.0022 281° West 406 467 38,000  Level Kansas City Center
08:23AM 37.3264 -93.1419 281° West 407 468 38,000  Level Kansas City Center
08:24AM 37.3489 -93.2844 281° West 410 472 38,000  Level Kansas City Center
08:26AM 37.4347 -93.3806 318° Northwest 422 486 38,000 -420 Level Kansas City Center
08:27AM 37.5447 -93.4403 337° Northwest 424 488 37,200 -900 Descending Kansas City Center
08:28AM 37.6528 -93.5003 336° Northwest 423 487 36,200 -960 Descending Kansas City Center
08:29AM 37.7636 -93.5617 336° Northwest 427 491 35,300 -960 Descending Kansas City Center
08:30AM 37.8758 -93.6250 336° Northwest 436 502 34,300 -1,620 Descending Kansas City Center
08:31AM 37.9872 -93.6867 336° Northwest 435 501 32,000 -2,940 Descending Kansas City Center
08:32AM 38.1008 -93.7522 336° Northwest 442 509 28,300 -4,020 Descending Kansas City Center
08:33AM 38.2189 -93.8206 336° Northwest 456 525 23,900 -3,660 Descending Kansas City Center
08:34AM 38.3353 -93.8811 338° Northwest 453 521 21,000 -2,760 Descending Kansas City Center
08:35AM 38.4425 -93.9436 335° Northwest 432 497 18,300 -2,880 Descending Kansas City Center
08:36AM 38.5583 -94.0106 336° Northwest 411 473 15,200 -2,760 Descending Kansas City Center
08:37AM 38.6533 -94.0644 336° Northwest 392 451 12,700 -1,620 Descending Kansas City Center
08:38AM 38.7472 -94.1486 325° Northwest 368 423 12,000 -360 Descending Kansas City Center
08:39AM 38.8192 -94.2289 319° Northwest 359 413 12,000 -180 Level Kansas City Center
08:40AM 38.8808 -94.2967 319° Northwest 309 356 11,700 -1,020 Descending Kansas City Center
08:41AM 38.9506 -94.3764 318° Northwest 301 346 10,000 -1,740 Descending Kansas City Center
08:42AM 39.0006 -94.4492 311° West 287 330 8,300 -1,500 Descending Kansas City Center
08:43AM 39.0611 -94.5336 313° West 287 330 7,000 -660 Descending Kansas City Center
08:44AM 39.1119 -94.6075 312° West 288 331 7,000  Level Kansas City Center
08:45AM 39.1608 -94.6783 312° West 278 320 7,000  Level Kansas City Center
08:46AM 39.1944 -94.7675 296° West 241 277 7,000 -600 Level Kansas City Center
08:47AM 39.2072 -94.8428 282° West 226 260 5,800 -1,440 Descending Kansas City Center
08:48AM 39.2239 -94.9286 284° West 222 255 4,100 -900 Descending Kansas City Center
08:49AM 39.2833 -94.9328 357° North 249 287 4,000 -420 Descending Kansas City Center
08:50AM 39.3025 -94.8697 69° East 193 222 3,300 -840 Descending Kansas City Center
08:51AM 39.2972 -94.8056 96° East 160 184 2,300 -840 Descending Kansas City Center
08:52AM 39.2936 -94.7664 97° East 115 132 1,700 -600 Descending Kansas City Center
08:53AM 39.2900 -94.7267 97° East 116 133 1,100 -600 Descending Kansas City Center